Arboga, California
Current Conditions -  °F | °C
As of 3:25 PM on Friday 19 Dec 2014 (Local Time) from KMYV Reporting Station
Light Rain Light Rain  
Wind Chill: 52°   Ceiling: 2900
Heat Index: 52°   Visibility: 3mi
Dew Point: 51°   Wind: 8mph
Humidity: 97%   Direction: 170°S
Pressure: 30.17"   Gusts: NA
Location:  39.0904°N, 121.552°W
Report Text: KMYV 192325Z AUTO 17007KT 3SM -RA BR BKN029 OVC039 11/11 A3017 RMK AO2 P0001 T01110106
Loading
Personal Weather Stations






























Interactive Weather Map New forecast layout! Learn more

10-Day Weather Forecast

Advertisements
Track Severe Weather on mobile